Time;durP1;ratioP1;P1;durP2;ratioP2;P2;SDS_P1;SDS_P2;PMS_P1;PMS_P2;Temp;Humidity;BMP_temperature;BMP_pressure;BME280_temperature;BME280_humidity;BME280_pressure;Samples;Min_cycle;Max_cycle;Signal;HPM_P1;HPM_P2
2024/01/12 00:01:38;;;;;;;18.00;10.30;;;;;;;-142.91;100.00;56616.03;5048958;28;20302;-70
2024/01/12 00:04:05;;;;;;;13.63;9.98;;;;;;;-142.91;100.00;56616.03;5049143;28;20282;-71
2024/01/12 00:06:32;;;;;;;14.13;8.80;;;;;;;-142.91;100.00;56616.03;5045777;28;20235;-71
2024/01/12 00:08:59;;;;;;;14.70;9.98;;;;;;;-142.91;100.00;56616.03;5048600;28;20263;-71
2024/01/12 00:11:26;;;;;;;13.98;9.38;;;;;;;-142.91;100.00;56616.03;5047272;28;20215;-70
2024/01/12 00:13:52;;;;;;;13.20;8.90;;;;;;;-142.91;100.00;56616.03;5046953;28;20299;-71
2024/01/12 00:16:20;;;;;;;16.60;9.73;;;;;;;;;;5047090;28;20203;-71
2024/01/12 00:18:47;;;;;;;16.95;9.57;;;;;;;-142.91;100.00;56616.03;5047064;28;20740;-70
2024/01/12 00:21:13;;;;;;;15.85;10.30;;;;;;;-142.91;100.00;56616.03;5047768;28;20350;-70
2024/01/12 00:23:41;;;;;;;19.70;11.63;;;;;;;-142.91;100.00;56616.03;5047936;28;20297;-69
2024/01/12 00:26:08;;;;;;;17.65;10.23;;;;;;;-142.91;100.00;56616.03;5043680;28;20294;-70
2024/01/12 00:28:34;;;;;;;20.38;12.82;;;;;;;-142.91;100.00;56616.03;5046933;28;20294;-70
2024/01/12 00:31:01;;;;;;;16.63;9.50;;;;;;;-142.91;100.00;56616.03;5047302;28;20788;-70
2024/01/12 00:33:28;;;;;;;15.77;10.50;;;;;;;-142.91;100.00;56616.03;5038725;28;20238;-72
2024/01/12 00:35:54;;;;;;;21.20;11.45;;;;;;;-142.91;100.00;56616.03;5049869;28;20195;-70
2024/01/12 00:38:21;;;;;;;17.35;9.40;;;;;;;-142.91;100.00;56616.03;5050183;28;20258;-70
2024/01/12 00:40:49;;;;;;;15.95;10.02;;;;;;;-142.91;100.00;56616.03;5049535;28;20286;-71
2024/01/12 00:43:16;;;;;;;14.18;9.55;;;;;;;-142.91;100.00;56616.03;5050411;28;20238;-70
2024/01/12 00:45:42;;;;;;;17.00;10.02;;;;;;;-142.91;100.00;56616.03;5048088;28;20672;-70
2024/01/12 00:48:09;;;;;;;26.15;11.80;;;;;;;-142.91;100.00;56616.03;5049703;28;20246;-71
2024/01/12 00:50:35;;;;;;;17.23;10.43;;;;;;;-142.91;100.00;56616.03;5049772;28;20314;-72
2024/01/12 00:53:02;;;;;;;18.48;11.27;;;;;;;;;;5048824;28;20716;-72
2024/01/12 00:55:28;;;;;;;17.57;10.47;;;;;;;-142.91;100.00;56616.03;5046656;28;20289;-73
2024/01/12 00:57:57;;;;;;;13.13;8.55;;;;;;;-142.91;100.00;56616.03;5049815;28;20471;-72
2024/01/12 01:00:23;;;;;;;14.98;9.27;;;;;;;-142.91;100.00;56616.03;5049947;28;20195;-72
2024/01/12 01:02:50;;;;;;;14.75;10.45;;;;;;;-142.91;100.00;56616.03;5049433;28;20587;-72
2024/01/12 01:05:16;;;;;;;14.90;10.43;;;;;;;-142.91;100.00;56616.03;5049440;28;20238;-71
2024/01/12 01:07:43;;;;;;;17.87;10.30;;;;;;;-142.91;100.00;56616.03;5049508;28;20242;-71
2024/01/12 01:10:10;;;;;;;14.63;9.38;;;;;;;-142.91;100.00;56616.03;5049772;28;20308;-71
2024/01/12 01:12:37;;;;;;;17.83;9.77;;;;;;;-142.91;100.00;56616.03;5049191;28;20234;-70
2024/01/12 01:15:07;;;;;;;14.18;9.10;;;;;;;-142.91;100.00;56616.03;5050030;28;20648;-72
2024/01/12 01:17:33;;;;;;;16.08;9.02;;;;;;;-142.91;100.00;56616.03;5048309;28;20420;-70
2024/01/12 01:20:00;;;;;;;19.38;9.68;;;;;;;-142.91;100.00;56616.03;5048033;28;20223;-70
2024/01/12 01:22:29;;;;;;;12.05;9.25;;;;;;;-142.91;100.00;56616.03;5048218;28;20301;-70
2024/01/12 01:24:56;;;;;;;15.30;9.38;;;;;;;-142.91;100.00;56616.03;5047869;28;20260;-70
2024/01/12 01:27:22;;;;;;;14.40;8.45;;;;;;;-142.91;100.00;56616.03;5047942;28;20590;-70
2024/01/12 01:29:49;;;;;;;13.25;8.25;;;;;;;-142.91;100.00;56616.03;5048322;28;20286;-70
2024/01/12 01:32:17;;;;;;;12.75;8.52;;;;;;;-142.91;100.00;56616.03;5048457;28;20289;-70
2024/01/12 01:34:43;;;;;;;15.48;10.07;;;;;;;-142.91;100.00;56616.03;5048676;28;20763;-70
2024/01/12 01:37:10;;;;;;;14.30;9.27;;;;;;;-142.91;100.00;56616.03;5049316;28;20234;-71
2024/01/12 01:39:37;;;;;;;10.15;6.88;;;;;;;-142.91;100.00;56616.03;5048727;28;20235;-70
2024/01/12 01:42:04;;;;;;;13.05;8.68;;;;;;;-142.91;100.00;56616.03;5049746;28;20281;-70
2024/01/12 01:44:30;;;;;;;16.45;9.18;;;;;;;-142.91;100.00;56616.03;5049138;28;20203;-70
2024/01/12 01:46:58;;;;;;;15.17;8.20;;;;;;;-142.91;100.00;56616.03;5049753;28;20203;-71
2024/01/12 01:49:27;;;;;;;13.70;8.33;;;;;;;-142.91;100.00;56616.03;5049242;28;20199;-70
2024/01/12 01:51:54;;;;;;;14.70;10.10;;;;;;;-142.91;100.00;56616.03;5049355;28;20219;-70
2024/01/12 01:54:21;;;;;;;15.13;9.17;;;;;;;-142.91;100.00;56616.03;5049431;28;20223;-70
2024/01/12 01:56:48;;;;;;;15.13;9.27;;;;;;;-142.91;100.00;56616.03;5049063;28;20234;-71
2024/01/12 01:59:16;;;;;;;16.40;9.60;;;;;;;-142.91;100.00;56616.03;5049033;28;20241;-70
2024/01/12 02:01:43;;;;;;;19.20;9.82;;;;;;;-142.91;100.00;56616.03;5049336;28;20282;-70
2024/01/12 02:04:11;;;;;;;16.08;9.10;;;;;;;-142.91;100.00;56616.03;5050911;28;20289;-71
2024/01/12 02:06:39;;;;;;;14.07;8.82;;;;;;;-142.91;100.00;56616.03;5052679;28;20684;-70
2024/01/12 02:09:07;;;;;;;15.20;9.70;;;;;;;-142.91;100.00;56616.03;5052768;28;20282;-70
2024/01/12 02:11:34;;;;;;;30.63;10.67;;;;;;;-142.91;100.00;56616.03;5052258;28;20290;-70
2024/01/12 02:14:06;;;;;;;16.77;9.82;;;;;;;-142.91;100.00;56616.03;5052960;28;20308;-70
2024/01/12 02:16:33;;;;;;;14.00;8.75;;;;;;;-142.91;100.00;56616.03;5052321;28;20203;-70
2024/01/12 02:19:00;;;;;;;17.90;9.02;;;;;;;-142.91;100.00;56616.03;5052942;28;20237;-71
2024/01/12 02:21:28;;;;;;;16.15;8.70;;;;;;;-142.91;100.00;56616.03;5052431;28;20223;-71
2024/01/12 02:23:55;;;;;;;14.98;9.50;;;;;;;-142.91;100.00;56616.03;5052776;28;20235;-69
2024/01/12 02:26:22;;;;;;;14.25;9.57;;;;;;;-142.91;100.00;56616.03;5052283;28;20265;-70
2024/01/12 02:28:48;;;;;;;13.73;8.80;;;;;;;-142.91;100.00;56616.03;5052787;28;20282;-70
2024/01/12 02:31:16;;;;;;;18.10;8.88;;;;;;;-142.91;100.00;56616.03;5052252;28;20305;-71
2024/01/12 02:33:43;;;;;;;19.02;9.18;;;;;;;-142.91;100.00;56616.03;5052539;28;20677;-71
2024/01/12 02:36:09;;;;;;;14.20;8.25;;;;;;;-142.91;100.00;56616.03;5052282;28;20961;-70
2024/01/12 02:38:37;;;;;;;17.95;9.80;;;;;;;-142.91;100.00;56616.03;5056737;28;20269;-70
2024/01/12 02:41:04;;;;;;;16.37;9.10;;;;;;;-142.91;100.00;56616.03;5054269;28;20278;-69
2024/01/12 02:43:31;;;;;;;14.43;9.20;;;;;;;-142.91;100.00;56616.03;5052728;28;20230;-71
2024/01/12 02:45:57;;;;;;;15.40;7.78;;;;;;;-142.91;100.00;56616.03;5052426;28;20231;-70
2024/01/12 02:48:24;;;;;;;13.10;8.60;;;;;;;-142.91;100.00;56616.03;5052755;28;20259;-71
2024/01/12 02:50:50;;;;;;;14.50;8.60;;;;;;;-142.91;100.00;56616.03;5052351;28;20763;-71
2024/01/12 02:53:19;;;;;;;19.08;9.45;;;;;;;-142.91;100.00;56616.03;5052764;28;20290;-70
2024/01/12 02:55:47;;;;;;;11.02;8.15;;;;;;;-142.91;100.00;56616.03;5039356;28;20291;-70
2024/01/12 02:58:13;;;;;;;15.55;7.70;;;;;;;-142.91;100.00;56616.03;5052299;28;20259;-70
2024/01/12 03:00:40;;;;;;;18.08;9.68;;;;;;;-142.91;100.00;56616.03;5051862;28;20223;-71
2024/01/12 03:03:07;;;;;;;13.20;8.32;;;;;;;-142.91;100.00;56616.03;5052248;28;20231;-72
2024/01/12 03:05:34;;;;;;;12.68;8.57;;;;;;;-142.91;100.00;56616.03;5051541;28;20209;-70
2024/01/12 03:08:01;;;;;;;20.92;10.77;;;;;;;-142.91;100.00;56616.03;5052098;28;20241;-69
2024/01/12 03:10:28;;;;;;;14.27;9.13;;;;;;;-142.91;100.00;56616.03;5051684;28;20231;-70
2024/01/12 03:12:56;;;;;;;15.57;9.05;;;;;;;-142.91;100.00;56616.03;5052071;28;20234;-70
2024/01/12 03:15:22;;;;;;;15.80;9.93;;;;;;;-142.91;100.00;56616.03;5051161;28;20282;-70
2024/01/12 03:17:49;;;;;;;13.77;8.82;;;;;;;-142.91;100.00;56616.03;5046940;28;20286;-70
2024/01/12 03:20:15;;;;;;;19.45;9.90;;;;;;;-142.91;100.00;56616.03;5049705;28;20734;-70
2024/01/12 03:22:42;;;;;;;13.93;7.93;;;;;;;-142.91;100.00;56616.03;5049676;28;20269;-70
2024/01/12 03:25:09;;;;;;;15.80;9.43;;;;;;;-142.91;100.00;56616.03;5049851;28;20282;-70
2024/01/12 03:27:35;;;;;;;14.00;8.40;;;;;;;-142.91;100.00;56616.03;5049115;28;20767;-69
2024/01/12 03:30:04;;;;;;;14.63;8.38;;;;;;;-142.91;100.00;56616.03;5049841;28;20293;-69
2024/01/12 03:32:30;;;;;;;12.20;7.87;;;;;;;-142.91;100.00;56616.03;5049349;28;20674;-70
2024/01/12 03:34:57;;;;;;;15.55;8.18;;;;;;;-142.91;100.00;56616.03;5051912;28;20234;-70
2024/01/12 03:37:24;;;;;;;13.10;8.97;;;;;;;-142.91;100.00;56616.03;5050722;28;20268;-71
2024/01/12 03:39:50;;;;;;;17.07;8.23;;;;;;;-142.91;100.00;56616.03;5051470;28;20286;-71
2024/01/12 03:42:17;;;;;;;18.37;8.70;;;;;;;-142.91;100.00;56616.03;5050984;28;20241;-70
2024/01/12 03:44:44;;;;;;;14.73;8.63;;;;;;;-142.91;100.00;56616.03;5051182;28;20704;-71
2024/01/12 03:47:12;;;;;;;9.37;8.17;;;;;;;-142.91;100.00;56616.03;5050747;28;20203;-71
2024/01/12 03:49:38;;;;;;;14.30;8.57;;;;;;;-142.91;100.00;56616.03;5051210;28;20290;-71
2024/01/12 03:52:06;;;;;;;14.52;8.50;;;;;;;-142.91;100.00;56616.03;5050385;28;20310;-70
2024/01/12 03:54:32;;;;;;;12.55;7.80;;;;;;;-142.91;100.00;56616.03;5051281;28;20260;-71
2024/01/12 03:56:59;;;;;;;15.48;9.45;;;;;;;-142.91;100.00;56616.03;5050173;28;20744;-70
2024/01/12 03:59:26;;;;;;;11.77;8.35;;;;;;;-142.91;100.00;56616.03;5051014;28;20297;-71
2024/01/12 04:01:52;;;;;;;20.05;8.80;;;;;;;;;;5051212;28;20210;-71
2024/01/12 04:04:20;;;;;;;13.17;9.07;;;;;;;-142.91;100.00;56616.03;5051617;28;20246;-70
2024/01/12 04:06:47;;;;;;;18.23;9.20;;;;;;;-142.91;100.00;56616.03;5051181;28;20237;-70
2024/01/12 04:09:13;;;;;;;15.70;8.30;;;;;;;-142.91;100.00;56616.03;5051669;28;20298;-71
2024/01/12 04:11:41;;;;;;;19.60;9.70;;;;;;;-142.91;100.00;56616.03;5050451;28;20314;-70
2024/01/12 04:14:07;;;;;;;16.33;9.95;;;;;;;-142.91;100.00;56616.03;5051536;28;20215;-73
2024/01/12 04:16:34;;;;;;;17.07;11.00;;;;;;;-142.91;100.00;56616.03;5050540;28;20289;-71
2024/01/12 04:19:00;;;;;;;19.63;10.85;;;;;;;-142.91;100.00;56616.03;5050643;28;20768;-69
2024/01/12 04:21:28;;;;;;;19.58;11.15;;;;;;;-142.91;100.00;56616.03;5051020;28;20353;-72
2024/01/12 04:23:55;;;;;;;17.98;11.52;;;;;;;-142.91;100.00;56616.03;5051520;28;20250;-70
2024/01/12 04:26:22;;;;;;;18.15;10.02;;;;;;;-142.91;100.00;56616.03;5050317;28;21459;-71
2024/01/12 04:28:48;;;;;;;17.40;10.43;;;;;;;-142.91;100.00;56616.03;5050671;28;20235;-71
2024/01/12 04:31:15;;;;;;;15.17;9.80;;;;;;;-142.91;100.00;56616.03;5050426;28;20688;-71
2024/01/12 04:33:41;;;;;;;14.75;9.80;;;;;;;-142.91;100.00;56616.03;5050858;28;20282;-71
2024/01/12 04:36:08;;;;;;;17.63;9.90;;;;;;;-142.91;100.00;56616.03;5050201;28;20727;-70
2024/01/12 04:38:36;;;;;;;18.00;9.60;;;;;;;-142.91;100.00;56616.03;5050966;28;20677;-71
2024/01/12 04:41:03;;;;;;;17.15;9.32;;;;;;;-142.91;100.00;56616.03;5052669;28;20225;-71
2024/01/12 04:43:30;;;;;;;15.93;10.55;;;;;;;-142.91;100.00;56616.03;5050757;28;20230;-71
2024/01/12 04:45:56;;;;;;;17.02;10.85;;;;;;;-142.91;100.00;56616.03;5051075;28;20278;-71
2024/01/12 04:48:23;;;;;;;19.35;10.27;;;;;;;23.25;100.00;56616.03;5058837;28;20648;-72
2024/01/12 04:50:50;;;;;;;15.65;9.60;;;;;;;-142.91;100.00;56616.03;5050398;28;20203;-71
2024/01/12 04:53:17;;;;;;;17.85;9.50;;;;;;;-142.91;100.00;56616.03;5050226;28;20218;-73
2024/01/12 04:55:45;;;;;;;18.87;11.27;;;;;;;-142.91;100.00;56616.03;5050153;28;20724;-71
2024/01/12 04:58:11;;;;;;;16.00;10.27;;;;;;;;;;5050049;28;20291;-73
2024/01/12 05:00:38;;;;;;;15.35;10.02;;;;;;;-142.91;100.00;56616.03;5050180;28;20230;-71
2024/01/12 05:03:05;;;;;;;23.15;11.20;;;;;;;-142.91;100.00;56616.03;5049986;28;20299;-73
2024/01/12 05:05:31;;;;;;;24.23;12.20;;;;;;;-142.91;100.00;56616.03;5050421;28;20333;-72
2024/01/12 05:07:58;;;;;;;19.03;10.53;;;;;;;-142.91;100.00;56616.03;5050558;28;20289;-72
2024/01/12 05:10:25;;;;;;;23.90;12.02;;;;;;;-142.91;100.00;56616.03;5050301;28;20249;-73
2024/01/12 05:12:52;;;;;;;18.70;11.00;;;;;;;-142.91;100.00;56616.03;5050389;28;20310;-69
2024/01/12 05:15:19;;;;;;;23.30;11.30;;;;;;;-142.91;100.00;56616.03;5050321;28;20231;-70
2024/01/12 05:17:46;;;;;;;26.02;13.32;;;;;;;-142.91;100.00;56616.03;5047431;28;20234;-71
2024/01/12 05:20:13;;;;;;;27.38;13.40;;;;;;;-142.91;100.00;56616.03;5047803;28;20226;-71
2024/01/12 05:22:39;;;;;;;21.90;11.25;;;;;;;-142.91;100.00;56616.03;5048455;28;20195;-72
2024/01/12 05:25:06;;;;;;;24.15;12.90;;;;;;;-142.91;100.00;56616.03;5048312;28;20282;-71
2024/01/12 05:27:33;;;;;;;24.95;13.23;;;;;;;-142.91;100.00;56616.03;5049292;28;20207;-71
2024/01/12 05:30:01;;;;;;;17.10;10.70;;;;;;;-142.91;100.00;56616.03;5049570;28;20233;-71
2024/01/12 05:32:27;;;;;;;15.27;9.98;;;;;;;-142.91;100.00;56616.03;5048886;28;20736;-70
2024/01/12 05:34:54;;;;;;;19.30;11.43;;;;;;;-142.91;100.00;56616.03;5049591;28;20231;-71
2024/01/12 05:37:21;;;;;;;24.80;9.98;;;;;;;-142.91;100.00;56616.03;5050007;28;20286;-69
2024/01/12 05:39:48;;;;;;;13.03;9.97;;;;;;;-142.91;100.00;56616.03;5052997;28;20230;-71
2024/01/12 05:42:14;;;;;;;21.83;11.47;;;;;;;-142.91;100.00;56616.03;5053920;28;20195;-70
2024/01/12 05:44:41;;;;;;;19.93;11.47;;;;;;;-142.91;100.00;56616.03;5053980;28;20310;-71
2024/01/12 05:47:09;;;;;;;22.00;11.20;;;;;;;-142.91;100.00;56616.03;5053442;28;20269;-75
2024/01/12 05:49:36;;;;;;;15.90;9.90;;;;;;;-142.91;100.00;56616.03;5053951;28;20389;-73
2024/01/12 05:52:03;;;;;;;20.57;10.10;;;;;;;-142.91;100.00;56616.03;5053394;28;20318;-72
2024/01/12 05:54:30;;;;;;;15.75;9.32;;;;;;;-142.91;100.00;56616.03;5046384;28;20680;-73
2024/01/12 05:56:56;;;;;;;18.17;9.27;;;;;;;;;;5047574;28;20234;-72
2024/01/12 05:59:23;;;;;;;20.17;8.98;;;;;;;-142.91;100.00;56616.03;5053772;28;20231;-71
2024/01/12 06:01:50;;;;;;;16.83;9.93;;;;;;;-142.91;100.00;56616.03;5052551;28;20700;-71
2024/01/12 06:04:18;;;;;;;15.05;9.85;;;;;;;-142.91;100.00;56616.03;5053766;28;20285;-71
2024/01/12 06:06:44;;;;;;;17.27;10.10;;;;;;;;;;5053292;28;20241;-70
2024/01/12 06:09:11;;;;;;;24.27;10.82;;;;;;;-142.91;100.00;56616.03;5053234;28;20755;-71
2024/01/12 06:11:37;;;;;;;17.53;9.87;;;;;;;-142.91;100.00;56616.03;5053029;28;20238;-71
2024/01/12 06:14:04;;;;;;;18.35;10.60;;;;;;;-142.91;100.00;56616.03;5053261;28;20655;-72
2024/01/12 06:16:30;;;;;;;25.13;12.63;;;;;;;;;;5057509;28;20249;-71
2024/01/12 06:18:57;;;;;;;15.15;10.55;;;;;;;-142.91;100.00;56616.03;5052911;28;20656;-71
2024/01/12 06:21:24;;;;;;;20.50;10.03;;;;;;;;;;5053038;28;20250;-71
2024/01/12 06:23:51;;;;;;;20.50;11.98;;;;;;;-142.91;100.00;56616.03;5053152;28;20238;-70
2024/01/12 06:26:18;;;;;;;21.97;10.77;;;;;;;-142.91;100.00;56616.03;5052374;28;20804;-73
2024/01/12 06:28:44;;;;;;;21.70;10.82;;;;;;;-142.91;100.00;56616.03;5052964;28;20242;-72
2024/01/12 06:31:11;;;;;;;23.42;10.95;;;;;;;-142.91;100.00;56616.03;5052786;28;20234;-71
2024/01/12 06:33:37;;;;;;;23.00;11.27;;;;;;;-142.91;100.00;56616.03;5052758;28;20309;-72
2024/01/12 06:36:05;;;;;;;19.20;10.55;;;;;;;-142.91;100.00;56616.03;5052831;28;20238;-71
2024/01/12 06:38:33;;;;;;;13.68;9.40;;;;;;;-142.91;100.00;56616.03;5052413;28;20698;-71
2024/01/12 06:40:59;;;;;;;22.35;11.90;;;;;;;-142.91;100.00;56616.03;5052320;28;20893;-70
2024/01/12 06:43:26;;;;;;;15.07;8.77;;;;;;;-142.91;100.00;56616.03;5052720;28;20646;-72
2024/01/12 06:45:53;;;;;;;15.57;9.20;;;;;;;-142.91;100.00;56616.03;5052468;28;20226;-73
2024/01/12 06:48:20;;;;;;;20.45;11.13;;;;;;;-142.91;100.00;56616.03;5051981;28;20659;-72
2024/01/12 06:50:47;;;;;;;19.23;10.18;;;;;;;-142.91;100.00;56616.03;5050909;28;20199;-73
2024/01/12 06:53:14;;;;;;;13.93;9.27;;;;;;;-142.91;100.00;56616.03;5052426;28;20314;-71
2024/01/12 06:55:42;;;;;;;17.65;9.98;;;;;;;-142.91;100.00;56616.03;5052353;28;20210;-71
2024/01/12 06:58:09;;;;;;;14.63;9.55;;;;;;;-142.91;100.00;56616.03;5052499;28;20382;-71
2024/01/12 07:00:35;;;;;;;19.08;10.00;;;;;;;-142.91;100.00;56616.03;5051458;28;20733;-72
2024/01/12 07:03:02;;;;;;;18.50;9.60;;;;;;;-142.91;100.00;56616.03;5052454;28;20282;-71
2024/01/12 07:05:29;;;;;;;20.23;9.27;;;;;;;-142.91;100.00;56616.03;5051942;28;20205;-72
2024/01/12 07:07:56;;;;;;;17.40;9.57;;;;;;;-142.91;100.00;56616.03;5052393;28;20206;-73
2024/01/12 07:10:23;;;;;;;20.20;10.02;;;;;;;-142.91;100.00;56616.03;5051638;28;20301;-72
2024/01/12 07:12:52;;;;;;;19.10;9.68;;;;;;;-142.91;100.00;56616.03;5052272;28;20254;-73
2024/01/12 07:15:20;;;;;;;18.07;9.40;;;;;;;;;;5051575;28;20301;-72
2024/01/12 07:17:47;;;;;;;18.00;11.25;;;;;;;;;;5050982;28;20202;-72
2024/01/12 07:20:13;;;;;;;18.40;10.30;;;;;;;-142.91;100.00;56616.03;5049571;28;20221;-71
2024/01/12 07:22:40;;;;;;;20.25;10.60;;;;;;;-142.91;100.00;56616.03;5050586;28;20283;-71
2024/01/12 07:25:07;;;;;;;18.60;11.00;;;;;;;-142.91;100.00;56616.03;5047557;28;20250;-71
2024/01/12 07:27:34;;;;;;;20.80;11.25;;;;;;;23.25;100.00;56616.03;5050048;28;20535;-70
2024/01/12 07:30:03;;;;;;;34.17;11.25;;;;;;;23.25;100.00;56616.03;5050061;28;20234;-70
2024/01/12 07:32:29;;;;;;;16.20;10.60;;;;;;;23.25;100.00;56616.03;5050738;28;20222;-70
2024/01/12 07:34:56;;;;;;;19.40;11.23;;;;;;;;;;5050987;28;20294;-71
2024/01/12 07:37:24;;;;;;;17.70;11.45;;;;;;;23.26;100.00;56616.03;5051461;28;20235;-70
2024/01/12 07:39:50;;;;;;;21.75;12.02;;;;;;;23.25;100.00;56616.03;5051447;28;20282;-71
2024/01/12 07:42:17;;;;;;;17.83;9.82;;;;;;;23.26;100.00;56616.03;5051004;28;20291;-71
2024/01/12 07:44:43;;;;;;;21.48;10.48;;;;;;;23.26;100.00;56616.03;5051429;28;20230;-71
2024/01/12 07:47:11;;;;;;;16.85;10.25;;;;;;;23.25;100.00;56616.03;5050812;28;20802;-70
2024/01/12 07:49:38;;;;;;;19.02;11.10;;;;;;;23.25;100.00;56616.03;5051271;28;20235;-72
2024/01/12 07:52:05;;;;;;;21.58;10.80;;;;;;;23.25;100.00;56616.03;5051407;28;20297;-71
2024/01/12 07:54:32;;;;;;;20.38;11.57;;;;;;;23.26;100.00;56616.03;5050994;28;20292;-72
2024/01/12 07:56:58;;;;;;;22.40;12.27;;;;;;;23.25;100.00;56616.03;5049364;28;20239;-72
2024/01/12 07:59:25;;;;;;;23.52;13.85;;;;;;;-142.91;100.00;56616.03;5050074;28;20281;-74
2024/01/12 08:01:53;;;;;;;26.95;12.00;;;;;;;-142.91;100.00;56616.03;5049919;28;20882;-73
2024/01/12 08:04:21;;;;;;;21.70;12.18;;;;;;;-142.91;100.00;56616.03;5050103;28;20207;-72
2024/01/12 08:06:48;;;;;;;27.40;12.55;;;;;;;-142.91;100.00;56616.03;5050846;28;20221;-73
2024/01/12 08:09:14;;;;;;;29.48;14.75;;;;;;;-142.91;100.00;56616.03;5050751;28;20291;-70
2024/01/12 08:11:41;;;;;;;21.85;11.43;;;;;;;-142.91;100.00;56616.03;5050616;28;20207;-71
2024/01/12 08:14:07;;;;;;;22.58;12.32;;;;;;;-142.91;100.00;56616.03;5050510;28;20778;-71
2024/01/12 08:16:34;;;;;;;21.30;11.45;;;;;;;-142.91;100.00;56616.03;5050847;28;20268;-71
2024/01/12 08:19:01;;;;;;;26.98;13.02;;;;;;;23.25;100.00;56616.03;5050604;28;20199;-70
2024/01/12 08:21:29;;;;;;;25.77;13.40;;;;;;;23.26;100.00;56616.03;5050200;28;20747;-72
2024/01/12 08:23:55;;;;;;;23.83;12.57;;;;;;;-142.91;100.00;56616.03;5050311;28;20230;-71
2024/01/12 08:26:22;;;;;;;20.08;11.93;;;;;;;-142.91;100.00;56616.03;5049586;28;20286;-71
2024/01/12 08:28:54;;;;;;;21.10;12.82;;;;;;;23.25;100.00;56616.03;5050374;28;20257;-71
2024/01/12 08:31:21;;;;;;;25.48;13.45;;;;;;;-142.91;100.00;56616.03;5048562;28;20207;-71
2024/01/12 08:33:49;;;;;;;23.77;12.10;;;;;;;-142.91;100.00;56616.03;5048957;28;20305;-71
2024/01/12 08:36:16;;;;;;;25.73;11.98;;;;;;;-142.91;100.00;56616.03;5048356;28;20636;-72
2024/01/12 08:38:44;;;;;;;27.10;13.35;;;;;;;-142.91;100.00;56616.03;5050208;28;20265;-72
2024/01/12 08:41:10;;;;;;;24.33;12.88;;;;;;;-142.91;100.00;56616.03;5049510;28;20290;-70
2024/01/12 08:43:37;;;;;;;22.98;13.85;;;;;;;-142.91;100.00;56616.03;5050420;28;20675;-71
2024/01/12 08:46:04;;;;;;;26.13;13.63;;;;;;;-142.91;100.00;56616.03;5050064;28;20238;-71
2024/01/12 08:48:30;;;;;;;23.25;11.95;;;;;;;;;;5049606;28;20261;-72
2024/01/12 08:50:58;;;;;;;26.92;13.52;;;;;;;-142.91;100.00;56616.03;5049801;28;20684;-71
2024/01/12 08:53:25;;;;;;;26.05;12.07;;;;;;;-142.91;100.00;56616.03;5050258;28;20316;-71
2024/01/12 08:55:53;;;;;;;24.80;12.77;;;;;;;-142.91;100.00;56616.03;5044458;28;20228;-71
2024/01/12 08:58:19;;;;;;;19.77;11.95;;;;;;;-142.91;100.00;56616.03;5042703;28;20325;-73
2024/01/12 09:00:46;;;;;;;22.92;12.05;;;;;;;-142.91;100.00;56616.03;5025271;28;20741;-71
2024/01/12 09:03:13;;;;;;;24.85;12.95;;;;;;;-142.91;100.00;56616.03;5037750;28;20306;-73
2024/01/12 09:05:39;;;;;;;21.42;12.60;;;;;;;-142.91;100.00;56616.03;5044567;28;20229;-70
2024/01/12 09:08:06;;;;;;;31.98;12.57;;;;;;;;;;5039530;28;20231;-72
2024/01/12 09:10:32;;;;;;;22.35;9.98;;;;;;;;;;5043753;28;20695;-72
2024/01/12 09:13:02;;;;;;;26.23;14.20;;;;;;;;;;5046473;28;20237;-71
2024/01/12 09:15:28;;;;;;;25.38;11.90;;;;;;;-142.91;100.00;56616.03;5051078;28;20264;-71
2024/01/12 09:17:55;;;;;;;21.95;11.25;;;;;;;;;;5047510;28;20281;-70
2024/01/12 09:20:21;;;;;;;24.67;13.25;;;;;;;-142.91;100.00;56616.03;5044890;28;20751;-71
2024/01/12 09:22:49;;;;;;;22.10;12.18;;;;;;;-142.91;100.00;56616.03;5047171;28;20282;-71
2024/01/12 09:25:18;;;;;;;27.75;13.73;;;;;;;-142.91;100.00;56616.03;5050123;28;20306;-71
2024/01/12 09:27:45;;;;;;;24.90;13.60;;;;;;;;;;5051392;28;20642;-70
2024/01/12 09:30:13;;;;;;;28.83;13.57;;;;;;;;;;5047004;28;20297;-68
2024/01/12 09:32:40;;;;;;;26.08;12.73;;;;;;;-142.91;100.00;56616.03;5050227;28;20290;-71
2024/01/12 09:35:07;;;;;;;28.92;13.90;;;;;;;-142.91;100.00;56616.03;5052057;28;20268;-73
2024/01/12 09:37:34;;;;;;;30.63;13.65;;;;;;;-142.91;100.00;56616.03;5051381;28;20199;-69
2024/01/12 09:40:00;;;;;;;28.10;13.18;;;;;;;-142.91;100.00;56616.03;5052134;28;20749;-74
2024/01/12 09:42:33;;;;;;;26.67;13.68;;;;;;;-142.91;100.00;56616.03;5048655;28;20233;-70
2024/01/12 09:45:00;;;;;;;27.17;14.18;;;;;;;-142.91;100.00;56616.03;5047490;28;20297;-72
2024/01/12 09:47:29;;;;;;;24.02;13.52;;;;;;;-142.91;100.00;56616.03;5049308;28;20290;-69
2024/01/12 09:49:56;;;;;;;27.65;12.82;;;;;;;-142.91;100.00;56616.03;5051571;28;20290;-73
2024/01/12 09:52:23;;;;;;;30.20;14.85;;;;;;;-142.91;100.00;56616.03;5050777;28;20294;-71
2024/01/12 09:54:49;;;;;;;28.48;13.82;;;;;;;-142.91;100.00;56616.03;5051278;28;20251;-70
2024/01/12 09:57:16;;;;;;;24.45;13.82;;;;;;;;;;5050671;28;20752;-71
2024/01/12 09:59:45;;;;;;;24.92;13.02;;;;;;;-142.91;100.00;56616.03;5042256;28;20195;-71
2024/01/12 10:02:13;;;;;;;27.10;13.55;;;;;;;-142.91;100.00;56616.03;5051534;28;20329;-69
2024/01/12 10:04:41;;;;;;;32.97;14.77;;;;;;;-142.91;100.00;56616.03;5046185;28;20699;-73
2024/01/12 10:07:08;;;;;;;27.52;12.95;;;;;;;-142.91;100.00;56616.03;5051612;28;20592;-68
2024/01/12 10:09:35;;;;;;;24.98;13.43;;;;;;;-142.91;100.00;56616.03;5048170;28;20233;-71
2024/01/12 10:12:01;;;;;;;26.63;13.88;;;;;;;-142.91;100.00;56616.03;5050713;28;20297;-70
2024/01/12 10:14:28;;;;;;;19.10;10.30;;;;;;;-142.91;100.00;56616.03;5050069;28;20313;-72
2024/01/12 10:16:55;;;;;;;24.83;13.07;;;;;;;;;;5050830;28;20203;-71
2024/01/12 10:19:22;;;;;;;24.70;11.30;;;;;;;-142.91;100.00;56616.03;5051166;28;20590;-71
2024/01/12 10:21:50;;;;;;;28.45;14.73;;;;;;;23.25;100.00;56616.03;5050621;28;20313;-70
2024/01/12 10:24:17;;;;;;;30.73;14.00;;;;;;;-142.91;100.00;56616.03;5052441;28;20605;-71
2024/01/12 10:26:44;;;;;;;28.00;13.40;;;;;;;-142.91;100.00;56616.03;5048497;28;20213;-71
2024/01/12 10:29:11;;;;;;;25.27;13.32;;;;;;;-142.91;100.00;56616.03;5049174;28;20695;-70
2024/01/12 10:31:41;;;;;;;26.17;13.45;;;;;;;-142.91;100.00;56616.03;5049655;28;20217;-71
2024/01/12 10:34:11;;;;;;;25.40;14.27;;;;;;;-142.91;100.00;56616.03;5049303;28;20237;-70
2024/01/12 10:36:38;;;;;;;23.00;11.63;;;;;;;-142.91;100.00;56616.03;5050300;28;20634;-71
2024/01/12 10:39:07;;;;;;;26.75;12.55;;;;;;;-142.91;100.00;56616.03;5049835;28;20227;-70
2024/01/12 10:41:34;;;;;;;27.70;13.10;;;;;;;-142.91;100.00;56616.03;5050358;28;20294;-72
2024/01/12 10:44:04;;;;;;;23.10;12.85;;;;;;;-142.91;100.00;56616.03;5048874;28;20209;-70
2024/01/12 10:46:36;;;;;;;35.25;14.73;;;;;;;-142.91;100.00;56616.03;5049661;28;20644;-70
2024/01/12 10:49:12;;;;;;;24.27;13.07;;;;;;;;;;5049420;28;20206;-70
2024/01/12 10:51:40;;;;;;;28.40;13.27;;;;;;;;;;5049086;28;20303;-69
2024/01/12 10:54:14;;;;;;;25.17;11.75;;;;;;;-142.91;100.00;56616.03;5043099;28;20665;-70
2024/01/12 10:56:42;;;;;;;32.30;14.50;;;;;;;-142.91;100.00;56616.03;5049009;28;20286;-72
2024/01/12 10:59:09;;;;;;;28.67;14.30;;;;;;;-142.91;100.00;56616.03;5048883;28;20210;-71
2024/01/12 11:01:37;;;;;;;22.10;13.40;;;;;;;23.25;100.00;56616.03;5044933;28;20293;-69
2024/01/12 11:04:05;;;;;;;29.17;14.60;;;;;;;-142.91;100.00;56616.03;5048794;28;20207;-71
2024/01/12 11:06:32;;;;;;;25.42;13.77;;;;;;;-142.91;100.00;56616.03;5048604;28;20329;-71
2024/01/12 11:09:01;;;;;;;23.60;10.93;;;;;;;-142.91;100.00;56616.03;5049503;28;20653;-71
2024/01/12 11:11:32;;;;;;;26.25;12.55;;;;;;;;;;5049343;28;20860;-69